Terminal Aerodrome Forecast
Issued by NWS

Home | Current Version | Previous Version | Text Only | Print | Product List | Glossary On
Versions: 1 2 3 4 5 6 7 8 9 10 11 12 13 14 15 16 17 18 19 20 21 22
000
FTUS45 KABQ 211700
TAFFMN
TAF
KFMN 211734Z 2118/2218 VRB06KT P6SM SCT030 SCT120
     FM212100 28010KT P6SM SCT040 BKN120
     FM220100 30007KT P6SM SCT030 BKN120
     FM220600 VRB06KT P6SM SCT025 BKN050
     FM221000 30007KT P6SM VCSH BKN025 OVC050
      TEMPO 2213/2216 5SM BR=

USA.gov is the U.S. government's official web portal to all federal, state and local government web resources and services.